Swain, NY (14884)

18:19 EDT le 01 octobre 2014 (GMT -0400)
Dalton | Change Station
CLOSE
Current Station
Stations météorologiques personnelles
Location: Dalton, NY
Altitude: 1913 ft
Stations météo à proximité

Alt. 1913 ft 42.51 °N, 77.92 °W | Updated 13 minutes ago

Partiellement nuageux
Partiellement nuageux
63.0 ° F
Paraît 63.0 ° F
N
3.0
Vent Variable Vent de SSO
Gusts 5.0 mph

Aujourd'hui
Haut(e) -- | Bas -- ° F
--% Risque de précip.
Hier
Haut(e) -- | Bas -- ° F
Precip. -- pouce
7:08 AM 6:53 PM
Premier quartier, 51% visible
Pression 30.07 pouce
Visibilité 10.0 Miles terrestres
Nuages Ciel dégagé
Point de rosée 57 ° F
Humidité 81%
Précipitations 0.00 pouce
Profondeur de la couche neigeuse Non disponible.
UV 0 sur 12
Pollen 3.00 sur 12
Ozone Bon
PM2.5 Moyen
Flu Activity Non disponible.
METAR KDSV 012154Z AUTO 18003KT 10SM CLR 20/13 A3005 RMK AO2 SLP183 T02000133

More Conditions Fewer Conditions

Pression 30.07 pouce
Visibilité 10.0 Miles terrestres
Nuages Ciel dégagé
Point de rosée 57 ° F
Humidité 81%
Précipitations 0.00 pouce
Profondeur de la couche neigeuse Non disponible.
UV 0 sur 12
Pollen 3.00 sur 12
Ozone Bon
PM2.5 Moyen
Flu Activity Non disponible.
METAR KDSV 012154Z AUTO 18003KT 10SM CLR 20/13 A3005 RMK AO2 SLP183 T02000133

More Conditions Fewer Conditions

10-Day Weather Forecast

Almanac

Astronomie

Oct. 01, 2014 Lever Coucher
Temps réel 07:08 EDT 18:53 EDT
Crépuscule civil 06:40 EDT 19:21 EDT
Crépuscule nautique 06:08 EDT 19:53 EDT
Crépuscule astronomique 05:34 EDT 20:26 EDT
Lune 14:13 EDT Pas de coucher de lune
Durée de lumière visible 12h 40m
Longueur du jour
11h 44m
Tomorrow will be 2m 50s shorter.
Premier quartier, 51% of the Moon is Illuminated
Aujourd'hui
Premier quartier
Oct 8
Pleine lune
Oct 15
Dernier quartier
Oct 23
Nouveau
Oct 30
Premier quartier

Extrêmes aujourd'hui

State Highs State Lows

Community

WunderPhotos

Upload Photos

1,758,058 Photos téléchargées !

WunderBlogs® & News

By Dr. Jeff Masters
Director of Meteorology, Weather Underground
By Kari Strenfel
Meteorologist, Weather Underground
By Christopher C. Burt
Weather Historian, Weather Underground
October 1, 2014
October 1, 2014
October 1, 2014

Nearby

Qualité de l'air

  Qualité de l'air Indice de la qualité de l'air Polluant
Hier Bon
PM2.5
Hier Bon
OZONE
Actuel Moyen
PM2.5
Actuel Bon
OZONE
mercredi Bon
PM2.5
jeudi Bon
PM2.5

Épaisseur de neige

Station Depth Altitude
Pas de nouvelles chutes de neige

Activité sismique

Ville Distance Mag. Time & Date
No recent earthquake activity has been reported nearby.
Minimum magnitude displayed is 2.5.

Températures des eaux côtières

Lieu Température
Aucun rapport de station

Stations météo à proximité